Time;durP1;ratioP1;P1;durP2;ratioP2;P2;SDS_P1;SDS_P2;PMS_P1;PMS_P2;Temp;Humidity;BMP_temperature;BMP_pressure;BME280_temperature;BME280_humidity;BME280_pressure;Samples;Min_cycle;Max_cycle;Signal;HPM_P1;HPM_P2
2022/06/23 00:01:37;;;;;;;2.15;1.45;;;;;;;25.51;41.32;100288.31;1705518;82;21032;-78
2022/06/23 00:04:04;;;;;;;2.08;1.37;;;;;;;25.51;41.35;100282.74;1709131;82;21180;-79
2022/06/23 00:06:56;;;;;;;2.20;1.40;;;;;;;25.50;41.34;100286.72;1720248;81;21047;-79
2022/06/23 00:09:48;;;;;;;3.15;1.45;;;;;;;25.51;41.34;100290.28;1719425;81;21158;-78
2022/06/23 00:12:36;;;;;;;2.45;1.57;;;;;;;25.51;41.37;100289.70;1717036;83;21466;-79
2022/06/23 00:15:08;;;;;;;2.80;1.77;;;;;;;25.51;41.37;100289.70;1714607;81;21071;-79
2022/06/23 00:17:44;;;;;;;2.05;1.65;;;;;;;25.50;41.37;100293.69;1708205;81;21187;-79
2022/06/23 00:20:21;;;;;;;1.80;1.40;;;;;;;25.50;41.38;100295.08;1715672;81;21087;-78
2022/06/23 00:22:57;;;;;;;2.02;1.27;;;;;;;25.51;41.38;100294.47;1717018;80;21107;-79
2022/06/23 00:25:47;;;;;;;3.20;1.52;;;;;;;25.50;41.39;100290.09;1717908;83;21099;-78
2022/06/23 00:28:30;;;;;;;2.42;1.60;;;;;;;25.50;41.38;100288.11;1717846;81;21055;-78
2022/06/23 00:31:03;;;;;;;3.20;1.57;;;;;;;25.50;41.40;100291.48;1698617;83;22670;-78
2022/06/23 00:33:40;;;;;;;2.72;1.35;;;;;;;25.48;41.41;100295.43;1705946;83;21018;-79
2022/06/23 00:36:40;;;;;;;3.00;1.60;;;;;;;25.49;41.40;100299.03;1696860;84;22215;-78
2022/06/23 00:39:24;;;;;;;2.60;1.40;;;;;;;25.48;41.44;100301.00;1719793;83;21032;-79
2022/06/23 00:41:56;;;;;;;2.40;1.45;;;;;;;25.49;41.43;100304.59;1724182;80;21035;-79
2022/06/23 00:44:34;;;;;;;4.33;1.75;;;;;;;25.48;41.42;100305.77;1711260;83;21160;-79
2022/06/23 00:47:04;;;;;;;3.77;1.50;;;;;;;25.48;41.42;100305.77;1723399;81;21060;-78
2022/06/23 00:49:51;;;;;;;2.50;1.90;;;;;;;25.48;41.44;100307.97;1689261;83;21111;-79
2022/06/23 00:52:25;;;;;;;4.80;1.82;;;;;;;25.48;41.44;100301.00;1609734;83;21797;-79
2022/06/23 00:54:55;;;;;;;2.27;1.50;;;;;;;25.47;41.44;100299.95;1710630;83;21043;-79
2022/06/23 00:57:43;;;;;;;2.90;1.62;;;;;;;25.48;41.45;100291.25;1721821;81;21489;-78
2022/06/23 01:00:19;;;;;;;2.72;1.77;;;;;;;25.47;41.47;100291.02;1713524;83;21086;-79
2022/06/23 01:02:51;;;;;;;3.33;1.90;;;;;;;25.47;41.45;100291.02;1718605;83;21481;-79
2022/06/23 01:05:50;;;;;;;5.05;1.62;;;;;;;25.47;41.47;100281.27;1714930;82;21038;-79
2022/06/23 01:08:33;;;;;;;4.03;1.60;;;;;;;25.47;41.46;100279.88;1723488;80;21079;-79
2022/06/23 01:11:22;;;;;;;2.30;1.60;;;;;;;25.46;41.47;100282.44;1710104;83;21269;-80
2022/06/23 01:14:06;;;;;;;3.42;1.80;;;;;;;25.47;41.46;100280.46;1705913;80;21067;-79
2022/06/23 01:16:53;;;;;;;3.33;1.95;;;;;;;25.46;41.46;100282.44;1697411;83;21118;-79
2022/06/23 01:19:51;;;;;;;2.67;1.80;;;;;;;25.46;41.46;100281.66;1675108;84;21128;-79
2022/06/23 01:22:41;;;;;;;4.67;1.80;;;;;;;25.45;41.47;100273.88;1665482;85;21152;-78
2022/06/23 01:25:25;;;;;;;3.00;1.90;;;;;;;25.44;41.45;100276.44;1709803;82;21080;-79
2022/06/23 01:28:06;;;;;;;3.47;2.00;;;;;;;25.45;41.47;100273.07;1708629;83;21005;-79
2022/06/23 01:30:56;;;;;;;5.35;2.00;;;;;;;25.44;41.48;100270.87;1706079;81;21438;-78
2022/06/23 01:33:40;;;;;;;;;;;;;;;25.44;41.49;100264.48;1707345;81;21099;-78
2022/06/23 01:36:27;;;;;;;4.22;1.80;;;;;;;25.43;41.53;100258.69;1723346;81;20146;-78
2022/06/23 01:39:08;;;;;;;3.77;2.10;;;;;;;25.42;41.51;100268.20;1717667;80;21156;-78
2022/06/23 01:41:44;;;;;;;2.72;1.77;;;;;;;25.42;41.54;100257.06;1726057;81;21083;-79
2022/06/23 01:44:39;;;;;;;4.47;1.90;;;;;;;25.42;41.51;100254.28;1705197;81;21091;-79
2022/06/23 01:47:35;;;;;;;3.17;1.85;;;;;;;25.41;41.53;100252.11;1724295;80;21062;-79
2022/06/23 01:50:20;;;;;;;2.62;1.82;;;;;;;25.41;41.53;100247.93;1709933;81;21466;-79
2022/06/23 01:52:50;;;;;;;4.08;2.10;;;;;;;25.41;41.53;100245.73;1718818;83;21850;-80
2022/06/23 01:55:24;;;;;;;2.87;1.87;;;;;;;25.41;41.53;100250.72;1709632;82;21661;-80
2022/06/23 01:58:04;;;;;;;3.10;2.05;;;;;;;25.40;41.55;100252.46;1701381;83;21016;-78
2022/06/23 02:00:30;;;;;;;3.12;1.98;;;;;;;25.41;41.56;100252.11;1678360;84;21091;-79
2022/06/23 02:03:20;;;;;;;2.17;1.60;;;;;;;25.42;41.55;100252.30;1721095;81;21597;-78
2022/06/23 02:05:56;;;;;;;3.43;2.33;;;;;;;25.42;41.56;100259.85;1718111;81;21146;-79
2022/06/23 02:08:45;;;;;;;3.47;1.90;;;;;;;25.42;41.56;100259.85;1717182;81;21032;-79
2022/06/23 02:11:26;;;;;;;2.65;1.80;;;;;;;25.43;41.59;100261.47;1688249;81;21681;-81
2022/06/23 02:14:26;;;;;;;2.87;2.10;;;;;;;25.42;41.56;100258.45;1709719;82;21022;-78
2022/06/23 02:17:01;;;;;;;3.30;2.00;;;;;;;25.42;41.56;100257.87;1701831;81;21536;-79
2022/06/23 02:19:39;;;;;;;4.17;2.20;;;;;;;25.42;41.57;100265.42;1713484;83;21566;-80
2022/06/23 02:22:30;;;;;;;3.17;1.75;;;;;;;25.43;41.60;100267.05;1725494;81;21538;-81
2022/06/23 02:25:08;;;;;;;2.98;2.10;;;;;;;25.42;41.60;100269.02;1709647;83;21017;-78
2022/06/23 02:28:10;;;;;;;3.20;1.92;;;;;;;25.41;41.60;100266.03;1707039;83;20988;-78
2022/06/23 02:30:50;;;;;;;3.60;1.98;;;;;;;25.42;41.58;100269.59;1696891;84;21102;-79
2022/06/23 02:33:37;;;;;;;3.37;2.05;;;;;;;25.41;41.60;100274.39;1706150;83;21162;-79
2022/06/23 02:36:40;;;;;;;2.55;1.87;;;;;;;25.41;41.58;100274.39;1726042;81;21513;-80
2022/06/23 02:39:17;;;;;;;3.83;1.77;;;;;;;25.41;41.58;100277.76;1723871;81;21027;-78
2022/06/23 02:41:55;;;;;;;3.95;2.12;;;;;;;25.40;41.57;100278.34;1704345;81;21036;-79
2022/06/23 02:44:33;;;;;;;4.70;2.20;;;;;;;25.40;41.58;100283.91;1713491;83;21075;-78
2022/06/23 02:47:20;;;;;;;3.08;2.20;;;;;;;25.41;41.60;100287.50;1721657;81;21172;-78
2022/06/23 02:50:17;;;;;;;3.02;2.10;;;;;;;25.40;41.62;100290.87;1716037;82;21023;-78
2022/06/23 02:53:28;;;;;;;4.50;2.37;;;;;;;25.41;41.61;100287.50;1717388;81;21044;-80
2022/06/23 02:56:09;;;;;;;4.60;2.20;;;;;;;25.40;41.62;100297.83;1696745;82;21054;-80
2022/06/23 02:58:50;;;;;;;3.55;2.17;;;;;;;25.40;41.60;100304.80;1709542;81;21111;-78
2022/06/23 03:01:38;;;;;;;3.92;2.22;;;;;;;25.39;41.59;100292.61;1725278;83;21446;-79
2022/06/23 03:04:23;;;;;;;3.37;1.98;;;;;;;25.39;41.59;100291.22;1685810;83;21035;-78
2022/06/23 03:07:22;;;;;;;3.45;2.12;;;;;;;25.38;41.62;100291.80;1702098;81;21444;-78
2022/06/23 03:10:09;;;;;;;5.15;2.17;;;;;;;25.39;41.59;100299.58;1715356;81;21114;-78
2022/06/23 03:12:52;;;;;;;5.45;2.17;;;;;;;25.38;41.58;100307.12;1726220;81;21083;-78
2022/06/23 03:15:31;;;;;;;4.40;2.20;;;;;;;25.38;41.57;100297.95;1739742;81;21171;-79
2022/06/23 03:18:12;;;;;;;4.20;2.00;;;;;;;25.38;41.56;100295.17;1748342;81;21044;-78
2022/06/23 03:20:52;;;;;;;3.75;2.17;;;;;;;25.38;41.57;100297.38;1746504;82;21075;-78
2022/06/23 03:23:45;;;;;;;3.92;2.30;;;;;;;25.38;41.57;100299.34;1742517;81;21055;-79
2022/06/23 03:26:40;;;;;;;4.40;2.27;;;;;;;25.38;41.57;100294.59;1731504;81;21667;-78
2022/06/23 03:29:28;;;;;;;5.67;2.35;;;;;;;25.38;41.57;100297.38;1746975;81;22007;-79
2022/06/23 03:32:24;;;;;;;2.77;2.05;;;;;;;25.38;41.59;100304.91;1747841;81;21031;-79
2022/06/23 03:35:20;;;;;;;3.00;1.95;;;;;;;25.39;41.59;100312.11;1748011;81;21012;-78
2022/06/23 03:38:04;;;;;;;4.00;2.20;;;;;;;25.38;41.58;100322.44;1747938;81;21598;-79
2022/06/23 03:43:40;;;;;;;5.85;2.15;;;;;;;25.38;41.61;100318.26;1747794;81;21199;-79
2022/06/23 03:46:29;;;;;;;3.72;2.15;;;;;;;25.38;41.55;100317.45;1748043;81;21040;-79
2022/06/23 03:49:00;;;;;;;4.58;2.20;;;;;;;25.37;41.56;100323.62;1747768;82;20996;-78
2022/06/23 03:51:31;;;;;;;3.92;1.90;;;;;;;25.38;41.58;100331.37;1737430;82;21891;-79
2022/06/23 03:54:05;;;;;;;3.45;2.30;;;;;;;25.38;41.58;100343.32;1726405;83;21071;-78
2022/06/23 03:56:48;;;;;;;5.22;2.12;;;;;;;25.38;41.61;100344.71;1726211;81;22026;-78
2022/06/23 03:59:23;;;;;;;4.20;2.15;;;;;;;25.39;41.59;100351.91;1726188;81;21036;-79
2022/06/23 04:02:00;;;;;;;4.28;1.95;;;;;;;25.40;41.61;100349.94;1726137;81;20940;-79
2022/06/23 04:05:01;;;;;;;3.17;1.92;;;;;;;25.40;41.59;100341.58;1726314;83;21130;-79
2022/06/23 04:07:51;;;;;;;3.58;2.17;;;;;;;25.40;41.58;100339.61;1726223;81;27204;-79
2022/06/23 04:10:30;;;;;;;2.50;2.02;;;;;;;25.39;41.57;100342.16;1726462;82;22099;-79
2022/06/23 04:13:00;;;;;;;4.00;2.58;;;;;;;25.39;41.56;100347.73;1724468;81;21034;-79
2022/06/23 04:15:32;;;;;;;3.70;2.30;;;;;;;25.40;41.57;100352.14;1726427;81;21115;-80
2022/06/23 04:18:08;;;;;;;4.22;2.60;;;;;;;25.41;41.56;100354.34;1725249;80;21059;-79
2022/06/23 04:20:40;;;;;;;4.20;2.17;;;;;;;25.40;41.55;100352.14;1725975;83;21095;-78
2022/06/23 04:23:34;;;;;;;3.35;2.00;;;;;;;25.41;41.55;100355.16;1726126;83;21153;-79
2022/06/23 04:26:18;;;;;;;2.75;2.08;;;;;;;25.42;41.54;100360.11;1725784;81;21008;-79
2022/06/23 04:28:51;;;;;;;3.45;2.00;;;;;;;25.42;41.50;100354.55;1713741;82;21478;-78
2022/06/23 04:31:27;;;;;;;3.25;2.17;;;;;;;25.42;41.48;100351.75;1747697;81;21569;-79
2022/06/23 04:33:53;;;;;;;3.02;2.33;;;;;;;25.42;41.49;100352.56;1747966;82;21523;-79
2022/06/23 04:36:25;;;;;;;4.83;2.72;;;;;;;25.43;41.48;100353.38;1747767;80;22024;-79
2022/06/23 04:38:56;;;;;;;3.33;2.37;;;;;;;25.43;41.48;100351.98;1747039;82;21550;-79
2022/06/23 04:41:37;;;;;;;4.60;2.27;;;;;;;25.44;41.48;100359.19;1745759;81;21059;-79
2022/06/23 04:44:07;;;;;;;4.75;2.52;;;;;;;25.44;41.46;100368.93;1738553;81;21048;-80
2022/06/23 04:46:43;;;;;;;3.77;2.40;;;;;;;25.45;41.45;100369.97;1721933;81;26296;-77
2022/06/23 04:49:30;;;;;;;5.62;2.60;;;;;;;25.45;41.44;100375.55;1692116;83;21181;-78
2022/06/23 04:52:03;;;;;;;4.50;2.40;;;;;;;25.44;41.37;100384.25;1723577;81;21580;-78
2022/06/23 04:54:36;;;;;;;7.45;3.55;;;;;;;25.42;41.27;100390.17;1736328;81;21408;-78
2022/06/23 04:57:08;;;;;;;13.43;4.00;;;;;;;25.40;41.00;100388.92;1705068;81;21089;-78
2022/06/23 04:59:50;;;;;;;14.55;4.45;;;;;;;25.35;40.49;100378.05;1729583;81;21791;-78
2022/06/23 05:02:30;;;;;;;4.92;2.45;;;;;;;25.30;40.31;100376.34;1727057;81;21177;-78
2022/06/23 05:05:05;;;;;;;8.65;3.22;;;;;;;25.27;39.85;100370.11;1726193;81;21076;-78
2022/06/23 05:07:45;;;;;;;6.83;2.55;;;;;;;25.17;39.45;100372.03;1756049;80;21122;-80
2022/06/23 05:10:31;;;;;;;7.78;2.33;;;;;;;25.15;39.41;100380.53;1676785;84;21551;-78
2022/06/23 05:13:04;;;;;;;4.70;2.40;;;;;;;25.13;39.09;100382.27;1694681;82;21105;-79
2022/06/23 05:15:48;;;;;;;5.28;2.37;;;;;;;25.09;38.67;100391.11;1695142;82;21221;-78
2022/06/23 05:18:19;;;;;;;4.65;2.40;;;;;;;25.08;38.62;100390.88;1692788;83;21132;-77
2022/06/23 05:21:04;;;;;;;5.42;2.58;;;;;;;25.06;38.30;100401.58;1694904;83;21088;-78
2022/06/23 05:23:47;;;;;;;5.80;2.85;;;;;;;25.00;37.99;100401.02;1689910;83;21339;-79
2022/06/23 05:26:21;;;;;;;4.37;2.37;;;;;;;24.97;38.03;100409.28;1695577;83;21167;-79
2022/06/23 05:28:51;;;;;;;8.78;2.45;;;;;;;24.91;37.96;100412.90;1708839;83;21119;-78
2022/06/23 05:31:23;;;;;;;8.93;2.70;;;;;;;24.87;37.74;100411.18;1708011;82;21056;-81
2022/06/23 05:33:52;;;;;;;6.90;2.50;;;;;;;24.83;37.87;100410.25;1736618;81;21033;-80
2022/06/23 05:36:26;;;;;;;4.78;2.47;;;;;;;24.82;37.89;100414.22;1732816;81;20979;-78
2022/06/23 05:39:06;;;;;;;4.22;2.10;;;;;;;24.80;37.98;100413.75;1729686;81;20992;-83
2022/06/23 05:41:44;;;;;;;;;;;;;;;24.77;37.72;100412.50;1753923;80;21039;-79
2022/06/23 05:44:28;;;;;;;7.47;2.10;;;;;;;24.76;37.54;100417.02;1743040;81;20228;-78
2022/06/23 05:46:54;;;;;;;5.45;2.17;;;;;;;24.77;37.90;100420.84;1706814;82;21670;-80
2022/06/23 05:49:38;;;;;;;6.85;2.20;;;;;;;24.77;37.83;100418.06;1716975;83;21068;-79
2022/06/23 05:52:07;;;;;;;6.53;2.00;;;;;;;24.77;37.67;100421.42;1722968;81;21100;-78
2022/06/23 05:54:38;;;;;;;4.42;1.98;;;;;;;24.75;37.38;100420.37;1696007;83;21095;-78
2022/06/23 05:57:18;;;;;;;8.65;2.37;;;;;;;24.76;37.47;100418.41;1695280;84;21059;-78
2022/06/23 06:00:17;;;;;;;5.58;1.92;;;;;;;24.80;37.49;100420.70;1695864;83;21080;-79
2022/06/23 06:03:24;;;;;;;7.78;2.20;;;;;;;24.84;37.38;100423.81;1697712;82;21531;-80
2022/06/23 06:05:57;;;;;;;5.12;1.92;;;;;;;24.84;37.22;100423.00;1695268;83;21585;-80
2022/06/23 06:09:35;;;;;;;6.33;1.85;;;;;;;24.79;37.08;100424.64;1699603;83;21621;-79
2022/06/23 06:11:05;;;;;;;7.20;2.12;;;;;;;24.75;37.02;100419.56;1696960;83;21021;-80
2022/06/23 06:13:35;;;;;;;5.40;1.67;;;;;;;24.74;37.01;100413.80;1692410;84;21088;-79
2022/06/23 06:16:04;;;;;;;5.50;1.87;;;;;;;24.75;37.08;100411.22;1683567;83;21071;-80
2022/06/23 06:18:38;;;;;;;6.78;1.82;;;;;;;24.80;37.17;100417.92;1701565;81;21029;-80
2022/06/23 06:21:13;;;;;;;4.35;2.17;;;;;;;24.83;37.16;100408.86;1682332;83;21140;-80
2022/06/23 06:23:59;;;;;;;6.37;1.70;;;;;;;24.85;37.33;100400.97;1658211;84;22370;-80
2022/06/23 06:26:40;;;;;;;4.08;1.57;;;;;;;24.91;37.41;100392.03;1708432;82;21071;-80
2022/06/23 06:29:16;;;;;;;3.58;1.45;;;;;;;24.95;37.30;100388.75;1705041;81;21119;-80
2022/06/23 06:31:47;;;;;;;5.95;1.62;;;;;;;24.98;37.40;100401.17;1715015;83;21115;-80
2022/06/23 06:34:36;;;;;;;11.15;1.67;;;;;;;24.99;37.35;100398.61;1717611;82;21536;-80
2022/06/23 06:37:06;;;;;;;4.37;1.42;;;;;;;25.00;37.20;100391.86;1721092;82;21032;-80
2022/06/23 06:39:38;;;;;;;5.00;1.72;;;;;;;24.98;37.11;100397.80;1716902;81;21067;-80
2022/06/23 06:42:14;;;;;;;7.17;1.70;;;;;;;25.00;37.40;100391.86;1715739;81;21870;-80
2022/06/23 06:44:47;;;;;;;4.53;1.70;;;;;;;25.05;37.39;100393.00;1710932;81;21146;-80
2022/06/23 06:47:24;;;;;;;6.40;2.00;;;;;;;25.07;37.34;100394.84;1714193;81;21193;-80
2022/06/23 06:49:53;;;;;;;6.03;1.80;;;;;;;25.08;37.13;100392.87;1697367;82;21061;-81
2022/06/23 06:52:19;;;;;;;6.05;1.92;;;;;;;25.07;37.26;100396.24;1702219;83;21554;-83
2022/06/23 06:54:53;;;;;;;8.20;1.65;;;;;;;25.11;37.43;100392.97;1719884;82;21054;-80
2022/06/23 06:57:38;;;;;;;5.08;1.95;;;;;;;25.13;37.35;100393.98;1716109;81;21063;-81
2022/06/23 07:00:09;;;;;;;3.20;1.65;;;;;;;25.13;37.11;100384.23;1716529;81;21680;-79
2022/06/23 07:02:43;;;;;;;;;;;;;;;25.08;37.13;100392.87;1708925;81;21032;-79
2022/06/23 07:05:45;;;;;;;4.90;1.57;;;;;;;25.09;37.18;100390.30;1725641;81;20547;-79
2022/06/23 07:08:28;;;;;;;7.33;2.02;;;;;;;25.07;37.03;100382.33;1704392;81;21048;-79
2022/06/23 07:11:15;;;;;;;3.70;1.70;;;;;;;25.04;36.83;100378.84;1751141;80;20997;-78
2022/06/23 07:14:20;;;;;;;6.67;1.22;;;;;;;25.05;36.66;100372.70;1747823;81;21229;-81
2022/06/23 07:17:03;;;;;;;2.87;1.40;;;;;;;25.03;36.46;100375.05;1627844;86;21126;-80
2022/06/23 07:19:37;;;;;;;2.00;1.12;;;;;;;25.01;36.38;100372.61;1727327;82;21397;-79
2022/06/23 07:22:26;;;;;;;3.90;1.80;;;;;;;25.03;36.54;100368.90;1749851;80;21052;-78
2022/06/23 07:25:06;;;;;;;5.15;1.15;;;;;;;25.03;36.16;100357.77;1755042;80;21079;-82
2022/06/23 07:28:22;;;;;;;3.52;1.27;;;;;;;25.00;36.01;100352.89;1743389;80;21068;-79
2022/06/23 07:30:55;;;;;;;3.90;2.00;;;;;;;24.95;35.77;100344.84;1745149;80;21064;-79
2022/06/23 07:33:29;;;;;;;6.62;1.80;;;;;;;24.94;35.78;100346.81;1750033;80;21264;-78
2022/06/23 07:36:01;;;;;;;2.30;1.40;;;;;;;24.95;35.84;100337.88;1756206;80;21677;-79
2022/06/23 07:38:44;;;;;;;5.47;1.12;;;;;;;24.97;35.85;100344.69;1746957;80;21054;-79
2022/06/23 07:41:22;;;;;;;6.75;1.10;;;;;;;25.00;35.53;100333.41;1749347;80;22419;-79
2022/06/23 07:44:14;;;;;;;3.35;1.60;;;;;;;24.98;35.48;100331.59;1747009;82;21115;-80
2022/06/23 07:46:41;;;;;;;3.30;1.32;;;;;;;25.00;35.43;100330.62;1747349;80;21303;-79
2022/06/23 07:49:12;;;;;;;4.97;1.25;;;;;;;25.00;35.71;100325.88;1748543;80;21020;-79
2022/06/23 07:51:39;;;;;;;2.50;1.42;;;;;;;25.04;35.96;100319.00;1708813;82;21097;-82
2022/06/23 07:54:06;;;;;;;3.30;1.27;;;;;;;25.07;35.89;100324.45;1707959;81;21040;-78
2022/06/23 07:56:34;;;;;;;4.17;1.15;;;;;;;25.08;35.48;100320.51;1679285;83;21572;-78
2022/06/23 07:59:07;;;;;;;5.42;1.57;;;;;;;25.07;35.50;100321.09;1674411;83;21733;-81
2022/06/23 08:02:14;;;;;;;2.85;1.40;;;;;;;25.10;35.62;100315.37;1662671;83;21104;-78
2022/06/23 08:05:08;;;;;;;5.53;1.70;;;;;;;25.09;35.59;100307.60;1705090;82;21082;-80
2022/06/23 08:07:35;;;;;;;2.33;1.25;;;;;;;25.09;35.32;100320.12;1709913;83;21204;-78
2022/06/23 08:10:09;;;;;;;2.80;1.15;;;;;;;25.09;35.33;100308.99;1717581;82;21087;-78
2022/06/23 08:12:54;;;;;;;2.12;1.07;;;;;;;25.13;35.40;100307.69;1718312;82;21866;-77
2022/06/23 08:18:50;;;;;;;3.75;1.40;;;;;;;25.16;35.26;100302.81;1764940;79;21020;-90
2022/06/23 08:21:31;;;;;;;3.55;1.25;;;;;;;25.20;35.36;100297.55;1734003;80;21300;-91
2022/06/23 08:24:16;;;;;;;3.22;1.20;;;;;;;25.23;35.22;100300.19;1735079;81;21063;-90
2022/06/23 08:26:49;;;;;;;5.17;1.50;;;;;;;25.25;35.35;100300.66;1750811;80;21088;-91
2022/06/23 08:29:16;;;;;;;3.60;1.17;;;;;;;25.27;35.18;100302.47;1725789;80;20996;-96
2022/06/23 08:31:43;;;;;;;6.05;1.50;;;;;;;25.27;35.31;100301.08;1769638;79;21050;-96
2022/06/23 08:34:09;;;;;;;3.58;1.60;;;;;;;25.30;35.29;100301.74;1762303;79;21360;-94
2022/06/23 08:36:49;;;;;;;2.90;1.30;;;;;;;25.32;35.12;100308.58;1728752;81;21068;-91
2022/06/23 08:39:32;;;;;;;3.20;1.35;;;;;;;25.32;34.97;100311.95;1756931;79;21108;-91
2022/06/23 08:42:19;;;;;;;3.47;1.27;;;;;;;25.33;35.08;100307.39;1732631;80;21056;-89
2022/06/23 08:45:12;;;;;;;3.90;1.12;;;;;;;25.34;35.24;100318.76;1745748;80;21047;-91
2022/06/23 08:47:53;;;;;;;2.12;1.20;;;;;;;25.36;35.20;100318.41;1746530;82;21113;-92
2022/06/23 08:50:58;;;;;;;6.33;1.75;;;;;;;25.37;35.18;100318.05;1736262;80;21088;-90
2022/06/23 08:53:45;;;;;;;2.25;1.30;;;;;;;25.38;35.24;100320.23;1741442;80;21043;-90
2022/06/23 08:56:23;;;;;;;2.27;1.30;;;;;;;25.40;35.36;100317.33;1766289;80;21545;-90
2022/06/23 08:58:56;;;;;;;3.87;1.30;;;;;;;25.42;35.25;100320.54;1750992;79;21112;-90
2022/06/23 09:01:40;;;;;;;2.90;1.30;;;;;;;25.43;35.34;100322.75;1744183;80;21197;-91
2022/06/23 09:04:15;;;;;;;3.92;1.65;;;;;;;25.45;35.15;100322.63;1746097;80;21108;-90
2022/06/23 09:06:53;;;;;;;4.10;1.50;;;;;;;25.46;35.34;100327.00;1747891;80;21970;-90
2022/06/23 09:09:51;;;;;;;4.00;1.60;;;;;;;25.50;35.58;100319.34;1744748;80;21064;-89
2022/06/23 09:12:32;;;;;;;5.78;1.42;;;;;;;25.54;35.71;100330.00;1715808;81;21057;-89
2022/06/23 09:15:26;;;;;;;3.17;1.42;;;;;;;25.56;35.64;100323.47;1742038;80;21153;-90
2022/06/23 09:18:33;;;;;;;3.65;1.60;;;;;;;25.57;35.70;100330.08;1741785;80;21070;-89
2022/06/23 09:21:19;;;;;;;6.05;1.25;;;;;;;25.61;35.66;100321.80;1749943;80;21567;-93
2022/06/23 09:24:15;;;;;;;4.50;1.45;;;;;;;25.63;35.58;100325.05;1750604;80;21371;-90
2022/06/23 09:27:05;;;;;;;9.20;2.02;;;;;;;25.66;35.53;100334.06;1712196;79;21033;-94
2022/06/23 09:29:56;;;;;;;3.37;1.50;;;;;;;25.66;35.38;100329.30;1743992;80;21335;-94
2022/06/23 09:32:28;;;;;;;4.10;1.57;;;;;;;25.67;35.33;100328.72;1747954;80;21062;-95
2022/06/23 09:35:28;;;;;;;3.15;1.50;;;;;;;25.68;35.30;100330.31;1749752;80;20992;-94
2022/06/23 09:38:09;;;;;;;3.47;1.22;;;;;;;25.70;35.25;100328.80;1746221;80;21088;-95
2022/06/23 09:40:58;;;;;;;6.03;1.67;;;;;;;25.72;35.21;100326.44;1735238;80;21542;-95
2022/06/23 09:43:45;;;;;;;4.83;1.40;;;;;;;25.72;35.14;100323.65;1744437;81;21137;-93
2022/06/23 09:46:48;;;;;;;4.28;1.40;;;;;;;25.71;35.24;100317.88;1743547;80;20937;-92
2022/06/23 09:49:35;;;;;;;4.12;1.60;;;;;;;25.71;35.29;100308.13;1743065;80;21096;-94
2022/06/23 09:52:44;;;;;;;3.50;1.32;;;;;;;25.73;35.29;100314.71;1748179;80;20956;-96
2022/06/23 09:55:49;;;;;;;4.55;1.32;;;;;;;25.74;35.27;100314.94;1741141;82;21048;-92
2022/06/23 09:58:37;;;;;;;2.50;1.47;;;;;;;25.75;35.35;100311.80;1707780;82;21292;-95
2022/06/23 10:01:27;;;;;;;2.02;1.17;;;;;;;25.75;35.29;100313.19;1742844;80;21032;-94
2022/06/23 10:04:25;;;;;;;2.87;1.35;;;;;;;25.76;35.22;100309.80;1746259;80;21041;-95
2022/06/23 10:07:49;;;;;;;4.70;1.32;;;;;;;25.76;35.19;100306.42;1721581;80;21354;-94
2022/06/23 10:11:00;;;;;;;2.12;1.47;;;;;;;25.77;35.19;100301.66;1729188;82;21138;-94
2022/06/23 10:14:13;;;;;;;3.77;1.30;;;;;;;25.79;35.06;100314.08;1738816;80;21113;-95
2022/06/23 10:16:50;;;;;;;5.35;1.60;;;;;;;25.80;35.00;100312.10;1715365;80;20984;-93
2022/06/23 10:19:46;;;;;;;2.75;1.50;;;;;;;25.81;34.92;100311.72;1742840;80;20980;-93
2022/06/23 10:22:24;;;;;;;4.67;1.22;;;;;;;25.81;34.91;100310.91;1742073;80;20985;-93
2022/06/23 10:25:26;;;;;;;3.83;1.22;;;;;;;25.81;34.85;100311.72;1740255;81;21108;-94
2022/06/23 10:28:15;;;;;;;3.17;1.45;;;;;;;25.81;34.75;100307.53;1743543;81;21181;-93
2022/06/23 10:31:20;;;;;;;3.55;1.50;;;;;;;25.82;34.75;100314.73;1742128;81;20933;-93
2022/06/23 10:34:27;;;;;;;2.90;1.50;;;;;;;25.83;34.79;100315.54;1740495;80;21139;-94
2022/06/23 10:37:18;;;;;;;3.20;1.50;;;;;;;25.82;34.80;100309.73;1740751;80;20886;-93
2022/06/23 10:40:07;;;;;;;2.72;1.20;;;;;;;25.83;34.71;100312.75;1738449;80;21096;-95
2022/06/23 10:43:25;;;;;;;3.62;1.32;;;;;;;25.83;34.66;100312.17;1759870;80;21028;-93
2022/06/23 10:46:15;;;;;;;1.90;1.20;;;;;;;25.82;34.67;100309.73;1707517;82;21019;-92
2022/06/23 10:49:21;;;;;;;4.30;1.40;;;;;;;25.83;34.76;100321.12;1734225;81;21044;-93
2022/06/23 10:52:26;;;;;;;3.05;1.47;;;;;;;25.83;34.75;100314.96;1741722;80;21710;-89
2022/06/23 10:55:31;;;;;;;4.10;1.57;;;;;;;25.85;34.79;100315.97;1752960;80;21077;-91
2022/06/23 10:58:26;;;;;;;3.35;1.50;;;;;;;25.86;34.65;100321.19;1748002;80;21037;-95
2022/06/23 11:01:38;;;;;;;3.45;1.20;;;;;;;25.85;34.62;100318.17;1744476;80;20997;-93
2022/06/23 11:04:36;;;;;;;4.25;1.32;;;;;;;25.85;34.65;100320.95;1725093;80;20996;-91
2022/06/23 11:07:28;;;;;;;2.12;1.25;;;;;;;25.85;34.77;100321.55;1729918;80;21068;-93
2022/06/23 11:10:31;;;;;;;5.15;2.05;;;;;;;25.86;34.87;100324.56;1742519;81;21029;-94
2022/06/23 11:13:26;;;;;;;2.90;1.22;;;;;;;25.86;34.81;100325.95;1750019;80;21705;-96
2022/06/23 11:16:22;;;;;;;4.08;1.22;;;;;;;25.83;34.74;100320.53;1733936;81;20977;-95
2022/06/23 11:18:59;;;;;;;2.45;1.95;;;;;;;25.84;34.67;100317.94;1730915;81;20985;-92
2022/06/23 11:22:04;;;;;;;2.30;1.25;;;;;;;25.85;34.65;100317.36;1720963;81;21075;-93
2022/06/23 11:24:54;;;;;;;2.42;1.37;;;;;;;25.85;34.77;100311.78;1728988;82;20997;-92
2022/06/23 11:27:46;;;;;;;3.20;1.25;;;;;;;25.86;34.80;100321.77;1703231;81;21200;-92
2022/06/23 11:30:26;;;;;;;2.80;1.10;;;;;;;25.85;34.79;100313.99;1721509;81;21053;-94
2022/06/23 11:33:22;;;;;;;2.05;1.27;;;;;;;25.86;34.72;100317.59;1708921;83;21084;-93
2022/06/23 11:36:13;;;;;;;2.98;1.10;;;;;;;25.85;34.79;100316.78;1723233;81;21076;-94
2022/06/23 11:39:36;;;;;;;1.98;1.10;;;;;;;25.87;34.73;100320.61;1717569;81;21056;-93
2022/06/23 11:42:28;;;;;;;5.80;1.35;;;;;;;25.87;34.72;100318.63;1722094;81;21195;-93
2022/06/23 11:45:36;;;;;;;7.25;1.85;;;;;;;25.87;34.84;100322.81;1706739;83;21044;-92
2022/06/23 11:48:36;;;;;;;2.45;1.35;;;;;;;25.88;34.71;100323.62;1736872;81;21044;-93
2022/06/23 11:51:11;;;;;;;4.67;1.25;;;;;;;25.87;34.61;100325.59;1724593;81;21077;-93
2022/06/23 11:54:15;;;;;;;2.65;1.20;;;;;;;25.88;34.77;100327.22;1677949;85;21076;-93
2022/06/23 11:57:05;;;;;;;2.02;1.07;;;;;;;25.89;34.75;100325.21;1725900;81;21575;-94
2022/06/23 11:59:49;;;;;;;3.03;0.90;;;;;;;25.87;34.80;100326.98;1727204;81;21123;-92
2022/06/23 12:02:16;;;;;;;1.60;1.20;;;;;;;25.87;34.77;100327.58;1714346;81;21080;-94
2022/06/23 12:05:00;;;;;;;2.95;1.45;;;;;;;25.87;34.66;100317.81;1730726;81;21387;-90
2022/06/23 12:07:59;;;;;;;1.37;1.02;;;;;;;25.87;34.52;100319.22;1717278;81;21079;-94
2022/06/23 12:10:27;;;;;;;2.80;1.60;;;;;;;25.87;34.60;100314.45;1678595;84;21169;-92
2022/06/23 12:12:58;;;;;;;3.17;1.20;;;;;;;25.87;34.66;100315.84;1743328;81;21036;-92
2022/06/23 12:15:29;;;;;;;1.87;1.07;;;;;;;25.87;34.65;100321.42;1689457;82;42797;-94
2022/06/23 12:17:59;;;;;;;;;;;;;;;25.88;34.66;100315.26;1711067;81;21077;-92
2022/06/23 12:20:55;;;;;;;2.67;1.17;;;;;;;25.89;34.66;100312.09;1711020;83;20135;-94
2022/06/23 12:23:47;;;;;;;3.67;1.20;;;;;;;25.88;34.84;100315.26;1703107;83;21612;-94
2022/06/23 12:26:25;;;;;;;4.53;1.12;;;;;;;25.87;34.91;100322.81;1714414;81;21057;-94
2022/06/23 12:29:06;;;;;;;1.80;1.10;;;;;;;25.86;34.86;100317.01;1719708;81;21030;-93
2022/06/23 12:32:01;;;;;;;2.95;1.30;;;;;;;25.87;34.74;100310.27;1697637;81;21077;-93
2022/06/23 12:34:52;;;;;;;3.40;1.62;;;;;;;25.90;34.72;100312.90;1696602;84;21073;-94
2022/06/23 12:37:47;;;;;;;5.00;1.37;;;;;;;25.88;34.88;100307.71;1697976;83;21080;-94
2022/06/23 12:40:40;;;;;;;2.58;1.22;;;;;;;25.90;35.05;100308.72;1716048;81;21097;-94
2022/06/23 12:43:52;;;;;;;2.98;1.12;;;;;;;25.90;35.05;100306.74;1677703;83;21084;-92
2022/06/23 12:46:30;;;;;;;2.50;1.40;;;;;;;25.91;34.97;100313.12;1722301;83;20966;-94
2022/06/23 12:49:14;;;;;;;2.90;1.25;;;;;;;25.92;34.91;100304.99;1727583;82;21064;-92
2022/06/23 12:52:06;;;;;;;2.80;1.20;;;;;;;25.92;34.79;100303.59;1710308;83;22192;-92